Time;durP1;ratioP1;P1;durP2;ratioP2;P2;SDS_P1;SDS_P2;PMS_P1;PMS_P2;Temp;Humidity;BMP_temperature;BMP_pressure;BME280_temperature;BME280_humidity;BME280_pressure;Samples;Min_cycle;Max_cycle;Signal;HPM_P1;HPM_P2
2022/05/11 00:19:56;;;;;;;;;;;;;;;;;;6267396;22;19921;-83
2022/05/11 00:31:31;;;;;;;;;;;;;;;;;;6276100;22;20451;-85
2022/05/11 00:33:58;;;;;;;;;;;;;;;;;;6293232;22;19929;-85
2022/05/11 00:36:24;;;;;;;;;;;;;;;;;;6264395;22;20311;-85
2022/05/11 00:38:50;;;;;;;;;;;;;;;;;;6268053;22;20388;-85
2022/05/11 00:41:16;;;;;;;;;;;;;;;;;;6266256;22;19945;-85
2022/05/11 00:43:42;;;;;;;;;;;;;;;;;;6293073;22;19925;-85
2022/05/11 00:46:08;;;;;;;;;;;;;;;;;;6290502;22;19983;-85
2022/05/11 00:51:19;;;;;;;;;;;;;;;;;;6291248;22;19918;-85
2022/05/11 00:53:45;;;;;;;;;;;;;;;;;;6292169;22;19918;-86
2022/05/11 00:56:11;;;;;;;;;;;;;;;;;;6292096;22;20310;-85
2022/05/11 00:58:37;;;;;;;;;;;;;;;;;;6291736;22;19950;-85
2022/05/11 01:01:03;;;;;;;;;;;;;;;;;;6267125;22;19925;-85
2022/05/11 01:03:29;;;;;;;;;;;;;;;;;;6264002;22;19923;-85
2022/05/11 01:05:55;;;;;;;;;;;;;;;;;;6292071;22;19929;-85
2022/05/11 01:08:21;;;;;;;;;;;;;;;;;;6262780;22;20040;-85
2022/05/11 01:10:47;;;;;;;;;;;;;;;;;;6293379;22;19930;-85
2022/05/11 01:13:13;;;;;;;;;;;;;;;;;;6290586;22;20351;-85
2022/05/11 01:15:39;;;;;;;;;;;;;;;;;;6293255;22;19919;-85
2022/05/11 01:18:05;;;;;;;;;;;;;;;;;;6292479;22;20242;-85
2022/05/11 01:20:35;;;;;;;;;;;;;;;;;;6294394;22;19957;-85
2022/05/11 01:23:01;;;;;;;;;;;;;;;;;;6320958;22;19941;-85
2022/05/11 01:25:27;;;;;;;;;;;;;;;;;;6268648;22;20335;-85
2022/05/11 01:27:53;;;;;;;;;;;;;;;;;;6267921;22;20756;-85
2022/05/11 01:30:19;;;;;;;;;;;;;;;;;;6264231;22;20337;-85
2022/05/11 01:32:45;;;;;;;;;;;;;;;;;;6294296;22;19979;-85
2022/05/11 01:35:11;;;;;;;;;;;;;;;;;;6265103;22;19919;-85
2022/05/11 01:37:37;;;;;;;;;;;;;;;;;;6266644;22;19922;-85
2022/05/11 01:40:03;;;;;;;;;;;;;;;;;;6267189;22;19967;-85
2022/05/11 01:42:29;;;;;;;;;;;;;;;;;;6264426;22;19993;-85
2022/05/11 01:44:55;;;;;;;;;;;;;;;;;;6265685;22;19942;-85
2022/05/11 01:47:21;;;;;;;;;;;;;;;;;;6264120;22;20216;-85
2022/05/11 01:49:47;;;;;;;;;;;;;;;;;;6290659;22;20094;-85
2022/05/11 01:52:13;;;;;;;;;;;;;;;;;;6265370;22;19930;-85
2022/05/11 01:54:39;;;;;;;;;;;;;;;;;;6266416;22;19926;-85
2022/05/11 01:57:05;;;;;;;;;;;;;;;;;;6293619;22;20000;-85
2022/05/11 01:59:30;;;;;;;;;;;;;;;;;;6264194;22;19922;-85
2022/05/11 02:01:56;;;;;;;;;;;;;;;;;;6291694;22;19950;-85
2022/05/11 02:09:52;;;;;;;;;;;;;;;;;;6291424;22;19964;-85
2022/05/11 02:12:18;;;;;;;;;;;;;;;;;;6290353;22;19929;-85
2022/05/11 02:14:47;;;;;;;;;;;;;;;;;;6291985;22;19918;-85
2022/05/11 02:17:25;;;;;;;;;;;;;;;;;;;;;
2022/05/11 02:26:49;;;;;;;;;;;;;;;;;;6115104;23;20263;-82
2022/05/11 02:29:30;;;;;;;;;;;;;;;;;;6052163;23;19917;-83
2022/05/11 02:32:11;;;;;;;;;;;;;;;;;;6066872;23;19921;-83
2022/05/11 02:37:40;;;;;;;;;;;;;;;;;;;;;
2022/05/11 02:40:43;;;;;;;;;;;;;;;;;;6174490;23;19920;-83
2022/05/11 02:43:28;;;;;;;;;;;;;;;;;;6165691;23;19924;-83
2022/05/11 02:52:02;;;;;;;;;;;;;;;;;;6070502;23;19995;-83
2022/05/11 02:55:03;;;;;;;;;;;;;;;;;;;;;
2022/05/11 03:01:21;;;;;;;;;;;;;;;;;;6124441;23;19932;-82
2022/05/11 03:03:49;;;;;;;;;;;;;;;;;;6107737;23;20342;-83
2022/05/11 03:06:49;;;;;;;;;;;;;;;;;;;;;
2022/05/11 03:09:58;;;;;;;;;;;;;;;;;;;;;
2022/05/11 03:12:40;;;;;;;;;;;;;;;;;;6141639;23;19919;-83
2022/05/11 03:15:44;;;;;;;;;;;;;;;;;;;;;
2022/05/11 03:21:35;;;;;;;;;;;;;;;;;;6156986;23;20190;-83
2022/05/11 03:24:24;;;;;;;;;;;;;;;;;;6105509;23;20341;-83
2022/05/11 03:40:09;;;;;;;;;;;;;;;;;;6022524;23;20442;-82
2022/05/11 03:42:57;;;;;;;;;;;;;;;;;;5929402;24;19923;-82
2022/05/11 03:46:01;;;;;;;;;;;;;;;;;;6068061;23;20426;-82
2022/05/11 03:48:50;;;;;;;;;;;;;;;;;;;;;
2022/05/11 03:51:54;;;;;;;;;;;;;;;;;;;;;
2022/05/11 03:54:50;;;;;;;;;;;;;;;;;;6010871;23;19965;-82
2022/05/11 03:57:39;;;;;;;;;;;;;;;;;;5985890;23;20384;-82
2022/05/11 04:00:29;;;;;;;;;;;;;;;;;;5998644;23;20448;-83
2022/05/11 04:03:31;;;;;;;;;;;;;;;;;;6027124;23;20472;-83
2022/05/11 04:06:26;;;;;;;;;;;;;;;;;;;;;
2022/05/11 04:15:57;;;;;;;;;;;;;;;;;;;;;
2022/05/11 04:18:32;;;;;;;;;;;;;;;;;;5823757;24;19985;-83
2022/05/11 04:24:45;;;;;;;;;;;;;;;;;;5922697;24;19923;-82
2022/05/11 04:27:19;;;;;;;;;;;;;;;;;;5929221;24;19933;-83
2022/05/11 04:30:10;;;;;;;;;;;;;;;;;;5886962;24;19919;-82
2022/05/11 04:36:17;;;;;;;;;;;;;;;;;;5989450;23;20004;-83
2022/05/11 04:42:24;;;;;;;;;;;;;;;;;;;;;
2022/05/11 04:45:26;;;;;;;;;;;;;;;;;;6043689;23;20307;-83
2022/05/11 04:48:42;;;;;;;;;;;;;;;;;;6082498;23;20499;-83
2022/05/11 05:00:29;;;;;;;;;;;;;;;;;;6013549;23;20135;-83
2022/05/11 05:09:37;;;;;;;;;;;;;;;;;;5917738;24;20102;-83
2022/05/11 05:22:17;;;;;;;;;;;;;;;;;;5925738;24;20419;-83
2022/05/11 05:34:00;;;;;;;;;;;;;;;;;;6064238;23;19976;-84
2022/05/11 05:36:46;;;;;;;;;;;;;;;;;;6046750;23;19921;-83
2022/05/11 05:39:12;;;;;;;;;;;;;;;;;;6015462;23;20497;-83
2022/05/11 05:41:47;;;;;;;;;;;;;;;;;;5999049;23;19921;-83
2022/05/11 05:44:32;;;;;;;;;;;;;;;;;;;;;
2022/05/11 05:47:17;;;;;;;;;;;;;;;;;;6101454;23;19982;-83
2022/05/11 05:50:05;;;;;;;;;;;;;;;;;;6103777;23;19949;-84
2022/05/11 05:55:44;;;;;;;;;;;;;;;;;;6034673;23;20046;-83
2022/05/11 05:58:15;;;;;;;;;;;;;;;;;;6078486;23;19925;-83
2022/05/11 06:00:47;;;;;;;;;;;;;;;;;;6093858;23;19916;-83
2022/05/11 06:03:26;;;;;;;;;;;;;;;;;;6116879;23;19920;-82
2022/05/11 06:05:58;;;;;;;;;;;;;;;;;;6166456;23;20391;-83
2022/05/11 06:08:30;;;;;;;;;;;;;;;;;;6133016;23;19933;-83
2022/05/11 06:10:58;;;;;;;;;;;;;;;;;;6086653;23;19921;-83
2022/05/11 06:13:39;;;;;;;;;;;;;;;;;;6082689;23;20337;-88
2022/05/11 06:16:31;;;;;;;;;;;;;;;;;;6091846;23;19984;-83
2022/05/11 06:19:12;;;;;;;;;;;;;;;;;;6157624;23;19916;-83
2022/05/11 06:25:04;;;;;;;;;;;;;;;;;;6167056;23;20285;-84
2022/05/11 06:28:12;;;;;;;;;;;;;;;;;;;;;
2022/05/11 06:31:00;;;;;;;;;;;;;;;;;;6194670;23;19916;-84
2022/05/11 06:43:19;;;;;;;;;;;;;;;;;;6050007;23;19925;-84
2022/05/11 06:46:07;;;;;;;;;;;;;;;;;;6077130;23;19921;-85
2022/05/11 07:01:00;;;;;;;;;;;;;;;;;;6121993;23;20007;-84
2022/05/11 07:12:56;;;;;;;;;;;;;;;;;;6026672;23;19918;-84
2022/05/11 07:15:40;;;;;;;;;;;;;;;;;;5979500;23;20359;-83
2022/05/11 07:21:39;;;;;;;;;;;;;;;;;;6023891;23;20407;-83
2022/05/11 07:24:54;;;;;;;;;;;;;;;;;;;;;
2022/05/11 07:27:22;;;;;;;;;;;;;;;;;;5944605;24;19974;-83
2022/05/11 07:35:45;;;;;;;;;;;;;;;;;;5944259;24;19985;-84
2022/05/11 07:50:22;;;;;;;;;;;;;;;;;;6204459;23;19924;-83
2022/05/11 07:52:48;;;;;;;;;;;;;;;;;;6155337;23;19926;-84
2022/05/11 07:55:14;;;;;;;;;;;;;;;;;;6178556;23;19920;-84
2022/05/11 08:00:25;;;;;;;;;;;;;;;;;;6178431;23;20127;-84
2022/05/11 08:02:51;;;;;;;;;;;;;;;;;;6179332;23;19919;-84
2022/05/11 08:05:17;;;;;;;;;;;;;;;;;;6177045;23;19931;-84
2022/05/11 08:07:43;;;;;;;;;;;;;;;;;;6177429;23;19920;-83
2022/05/11 08:10:09;;;;;;;;;;;;;;;;;;6178500;23;19923;-84
2022/05/11 08:12:35;;;;;;;;;;;;;;;;;;6180418;23;19919;-82
2022/05/11 08:15:01;;;;;;;;;;;;;;;;;;6178341;23;19920;-83
2022/05/11 08:17:27;;;;;;;;;;;;;;;;;;6148752;23;19970;-83
2022/05/11 08:19:53;;;;;;;;;;;;;;;;;;6177869;23;20249;-82
2022/05/11 08:22:20;;;;;;;;;;;;;;;;;;6152388;23;19919;-82
2022/05/11 08:24:46;;;;;;;;;;;;;;;;;;6155258;23;19927;-82
2022/05/11 08:27:12;;;;;;;;;;;;;;;;;;6177523;23;19983;-82
2022/05/11 08:35:07;;;;;;;;;;;;;;;;;;6177278;23;20359;-82
2022/05/11 08:37:33;;;;;;;;;;;;;;;;;;6205351;23;19919;-83
2022/05/11 08:39:59;;;;;;;;;;;;;;;;;;6206521;23;19991;-83
2022/05/11 08:42:25;;;;;;;;;;;;;;;;;;6176868;23;19951;-82
2022/05/11 08:44:51;;;;;;;;;;;;;;;;;;6179062;23;19920;-82
2022/05/11 08:47:17;;;;;;;;;;;;;;;;;;6176889;23;19962;-82
2022/05/11 08:49:43;;;;;;;;;;;;;;;;;;6218874;23;19970;-82
2022/05/11 08:52:10;;;;;;;;;;;;;;;;;;6206537;23;20344;-83
2022/05/11 08:54:36;;;;;;;;;;;;;;;;;;6236763;23;19951;-82
2022/05/11 08:57:02;;;;;;;;;;;;;;;;;;6210426;23;20257;-83
2022/05/11 08:59:28;;;;;;;;;;;;;;;;;;6232714;23;20285;-83
2022/05/11 09:01:54;;;;;;;;;;;;;;;;;;6233920;23;20225;-84
2022/05/11 09:04:22;;;;;;;;;;;;;;;;;;6232861;23;19932;-82
2022/05/11 09:06:48;;;;;;;;;;;;;;;;;;6209313;23;19919;-82
2022/05/11 09:09:16;;;;;;;;;;;;;;;;;;6233389;22;19915;-82
2022/05/11 09:11:42;;;;;;;;;;;;;;;;;;6235589;23;20325;-83
2022/05/11 09:14:08;;;;;;;;;;;;;;;;;;6207779;23;19923;-83
2022/05/11 09:16:34;;;;;;;;;;;;;;;;;;6208346;23;19926;-83
2022/05/11 09:19:00;;;;;;;;;;;;;;;;;;6234443;23;19986;-82
2022/05/11 09:21:26;;;;;;;;;;;;;;;;;;6231246;23;19924;-82
2022/05/11 09:23:53;;;;;;;;;;;;;;;;;;6208806;23;19915;-82
2022/05/11 09:26:19;;;;;;;;;;;;;;;;;;6229895;23;19955;-83
2022/05/11 09:28:45;;;;;;;;;;;;;;;;;;6233668;23;20382;-83
2022/05/11 09:31:19;;;;;;;;;;;;;;;;;;6231989;23;19938;-82
2022/05/11 09:33:45;;;;;;;;;;;;;;;;;;6234351;23;19926;-82
2022/05/11 09:36:11;;;;;;;;;;;;;;;;;;6231588;23;19990;-83
2022/05/11 09:38:37;;;;;;;;;;;;;;;;;;6235378;23;20290;-83
2022/05/11 09:41:02;;;;;;;;;;;;;;;;;;6207218;23;19919;-83
2022/05/11 09:43:29;;;;;;;;;;;;;;;;;;6206491;23;19923;-84
2022/05/11 09:45:54;;;;;;;;;;;;;;;;;;6208927;23;19999;-84
2022/05/11 09:48:20;;;;;;;;;;;;;;;;;;6207932;23;19966;-84
2022/05/11 09:50:47;;;;;;;;;;;;;;;;;;6208371;23;19927;-84
2022/05/11 09:53:13;;;;;;;;;;;;;;;;;;6202731;23;19926;-84
2022/05/11 09:55:39;;;;;;;;;;;;;;;;;;6233452;23;19931;-84
2022/05/11 09:58:08;;;;;;;;;;;;;;;;;;6206000;23;19919;-84
2022/05/11 10:00:34;;;;;;;;;;;;;;;;;;6233374;23;20346;-84
2022/05/11 10:03:02;;;;;;;;;;;;;;;;;;6208760;23;19938;-83
2022/05/11 10:05:28;;;;;;;;;;;;;;;;;;6230539;23;19977;-84
2022/05/11 10:07:54;;;;;;;;;;;;;;;;;;6233795;23;19923;-83
2022/05/11 10:10:20;;;;;;;;;;;;;;;;;;6232120;23;19919;-84
2022/05/11 10:12:46;;;;;;;;;;;;;;;;;;6209062;23;19983;-83
2022/05/11 10:23:27;;;;;;;;;;;;;;;;;;6230724;23;20016;-84
2022/05/11 10:25:52;;;;;;;;;;;;;;;;;;6208018;23;19971;-84
2022/05/11 10:28:19;;;;;;;;;;;;;;;;;;6231484;23;19927;-84
2022/05/11 10:30:45;;;;;;;;;;;;;;;;;;6233576;23;20244;-84
2022/05/11 10:33:11;;;;;;;;;;;;;;;;;;6229796;23;19920;-84
2022/05/11 10:35:37;;;;;;;;;;;;;;;;;;6208305;23;19990;-84
2022/05/11 10:38:02;;;;;;;;;;;;;;;;;;6209970;23;19982;-84
2022/05/11 10:40:29;;;;;;;;;;;;;;;;;;6204551;23;19981;-84
2022/05/11 10:42:55;;;;;;;;;;;;;;;;;;6205718;23;19927;-84
2022/05/11 10:45:21;;;;;;;;;;;;;;;;;;6207491;23;19920;-83
2022/05/11 10:47:47;;;;;;;;;;;;;;;;;;6236335;23;19923;-83
2022/05/11 10:50:13;;;;;;;;;;;;;;;;;;6208324;23;19946;-83
2022/05/11 10:52:39;;;;;;;;;;;;;;;;;;6233134;23;19919;-83
2022/05/11 10:55:05;;;;;;;;;;;;;;;;;;6231955;23;19947;-83
2022/05/11 10:57:31;;;;;;;;;;;;;;;;;;6209159;23;19919;-83
2022/05/11 10:59:57;;;;;;;;;;;;;;;;;;6235236;23;19957;-83
2022/05/11 11:02:23;;;;;;;;;;;;;;;;;;6208421;23;19920;-83
2022/05/11 11:04:49;;;;;;;;;;;;;;;;;;6236963;23;20386;-83
2022/05/11 11:07:15;;;;;;;;;;;;;;;;;;6234122;23;19973;-83
2022/05/11 11:09:41;;;;;;;;;;;;;;;;;;6234762;23;19947;-83
2022/05/11 11:12:07;;;;;;;;;;;;;;;;;;6232603;23;20351;-83
2022/05/11 11:14:33;;;;;;;;;;;;;;;;;;6230604;23;20026;-84
2022/05/11 11:16:59;;;;;;;;;;;;;;;;;;6235277;23;19915;-84
2022/05/11 11:19:25;;;;;;;;;;;;;;;;;;6202667;23;19982;-83
2022/05/11 11:21:51;;;;;;;;;;;;;;;;;;6232736;23;19919;-84
2022/05/11 11:24:17;;;;;;;;;;;;;;;;;;6234786;23;20449;-84
2022/05/11 11:26:43;;;;;;;;;;;;;;;;;;6240569;22;19916;-84
2022/05/11 11:29:10;;;;;;;;;;;;;;;;;;6235910;23;19969;-84
2022/05/11 11:31:36;;;;;;;;;;;;;;;;;;6239177;23;19919;-84
2022/05/11 11:34:02;;;;;;;;;;;;;;;;;;6211140;23;19991;-84
2022/05/11 11:36:28;;;;;;;;;;;;;;;;;;6232648;23;19916;-84
2022/05/11 11:38:54;;;;;;;;;;;;;;;;;;6236071;23;19977;-84
2022/05/11 11:41:20;;;;;;;;;;;;;;;;;;6208009;22;20238;-85
2022/05/11 11:43:46;;;;;;;;;;;;;;;;;;6208576;23;19934;-84
2022/05/11 11:46:11;;;;;;;;;;;;;;;;;;6230896;23;20331;-84
2022/05/11 11:48:38;;;;;;;;;;;;;;;;;;6233614;23;19923;-84
2022/05/11 11:51:04;;;;;;;;;;;;;;;;;;6207005;23;19915;-85
2022/05/11 11:53:30;;;;;;;;;;;;;;;;;;6206518;23;19995;-84
2022/05/11 11:55:56;;;;;;;;;;;;;;;;;;6234129;23;19927;-85
2022/05/11 11:58:22;;;;;;;;;;;;;;;;;;6234642;23;19973;-84
2022/05/11 12:00:48;;;;;;;;;;;;;;;;;;6210962;23;19920;-84
2022/05/11 12:03:14;;;;;;;;;;;;;;;;;;6207190;23;19927;-84
2022/05/11 12:05:40;;;;;;;;;;;;;;;;;;6235801;23;19924;-84
2022/05/11 12:16:07;;;;;;;;;;;;;;;;;;6231835;23;20254;-77
2022/05/11 12:18:33;;;;;;;;;;;;;;;;;;6237535;23;19920;-77
2022/05/11 12:20:59;;;;;;;;;;;;;;;;;;6238560;23;19920;-78
2022/05/11 12:23:26;;;;;;;;;;;;;;;;;;6232647;23;19920;-77
2022/05/11 12:25:52;;;;;;;;;;;;;;;;;;6236538;23;20336;-76
2022/05/11 12:28:18;;;;;;;;;;;;;;;;;;6235128;23;19943;-77
2022/05/11 12:30:44;;;;;;;;;;;;;;;;;;6238820;23;19923;-76
2022/05/11 12:33:10;;;;;;;;;;;;;;;;;;6233876;23;19934;-77
2022/05/11 12:35:36;;;;;;;;;;;;;;;;;;6239108;23;19927;-77
2022/05/11 12:38:03;;;;;;;;;;;;;;;;;;6238984;23;19991;-77
2022/05/11 12:40:30;;;;;;;;;;;;;;;;;;6236614;23;20179;-76
2022/05/11 12:42:56;;;;;;;;;;;;;;;;;;6234969;22;19924;-77
2022/05/11 12:45:22;;;;;;;;;;;;;;;;;;6232994;23;19923;-77
2022/05/11 12:47:48;;;;;;;;;;;;;;;;;;6238087;23;19938;-77
2022/05/11 12:50:14;;;;;;;;;;;;;;;;;;6209684;23;20321;-77
2022/05/11 12:52:40;;;;;;;;;;;;;;;;;;6234919;23;20386;-77
2022/05/11 12:55:06;;;;;;;;;;;;;;;;;;6232163;23;19959;-76
2022/05/11 12:57:32;;;;;;;;;;;;;;;;;;6233712;23;19919;-76
2022/05/11 12:59:58;;;;;;;;;;;;;;;;;;6208768;23;19919;-77
2022/05/11 13:02:30;;;;;;;;;;;;;;;;;;6208214;23;20478;-76
2022/05/11 13:04:56;;;;;;;;;;;;;;;;;;6235396;23;19973;-76
2022/05/11 13:07:21;;;;;;;;;;;;;;;;;;6232145;23;20014;-77
2022/05/11 13:09:47;;;;;;;;;;;;;;;;;;6234460;23;19919;-77
2022/05/11 13:12:13;;;;;;;;;;;;;;;;;;6205894;23;19916;-77
2022/05/11 13:14:39;;;;;;;;;;;;;;;;;;6205689;23;19946;-77
2022/05/11 13:17:05;;;;;;;;;;;;;;;;;;6230988;23;19916;-77
2022/05/11 13:19:32;;;;;;;;;;;;;;;;;;6232548;23;19994;-76
2022/05/11 13:21:58;;;;;;;;;;;;;;;;;;6207389;23;19919;-77
2022/05/11 13:24:24;;;;;;;;;;;;;;;;;;6204457;23;19923;-77
2022/05/11 13:26:51;;;;;;;;;;;;;;;;;;6232155;23;19973;-76
2022/05/11 13:29:18;;;;;;;;;;;;;;;;;;6230056;23;19990;-77
2022/05/11 13:31:44;;;;;;;;;;;;;;;;;;6234562;23;19986;-77
2022/05/11 13:34:09;;;;;;;;;;;;;;;;;;6207386;23;19945;-77
2022/05/11 13:36:35;;;;;;;;;;;;;;;;;;6233675;23;20139;-77
2022/05/11 13:39:01;;;;;;;;;;;;;;;;;;6235913;23;19997;-77
2022/05/11 13:41:28;;;;;;;;;;;;;;;;;;6232099;22;19955;-77
2022/05/11 13:43:54;;;;;;;;;;;;;;;;;;6234333;23;19920;-77
2022/05/11 13:46:20;;;;;;;;;;;;;;;;;;6232449;23;19999;-77
2022/05/11 13:48:47;;;;;;;;;;;;;;;;;;6232487;23;19927;-76
2022/05/11 13:51:26;;;;;;;;;;;;;;;;;;6227648;22;20030;-79
2022/05/11 13:53:52;;;;;;;;;;;;;;;;;;6228323;23;19994;-76
2022/05/11 13:56:18;;;;;;;;;;;;;;;;;;6226996;23;19915;-76
2022/05/11 13:58:44;;;;;;;;;;;;;;;;;;6230501;23;19951;-76
2022/05/11 14:01:10;;;;;;;;;;;;;;;;;;6225781;23;19919;-76
2022/05/11 14:03:36;;;;;;;;;;;;;;;;;;6207347;23;20363;-76
2022/05/11 14:06:02;;;;;;;;;;;;;;;;;;6234994;23;19920;-77
2022/05/11 14:08:28;;;;;;;;;;;;;;;;;;6207023;23;20009;-77
2022/05/11 14:10:54;;;;;;;;;;;;;;;;;;6234674;23;19927;-76
2022/05/11 14:13:20;;;;;;;;;;;;;;;;;;6231047;23;19926;-76
2022/05/11 14:15:46;;;;;;;;;;;;;;;;;;6234627;23;19986;-77
2022/05/11 14:18:12;;;;;;;;;;;;;;;;;;6228446;23;19919;-76
2022/05/11 14:20:38;;;;;;;;;;;;;;;;;;6234787;23;19919;-76
2022/05/11 14:23:04;;;;;;;;;;;;;;;;;;6230601;23;19969;-76
2022/05/11 14:25:30;;;;;;;;;;;;;;;;;;6231335;23;19977;-76
2022/05/11 14:27:56;;;;;;;;;;;;;;;;;;6231798;23;19924;-76
2022/05/11 14:30:22;;;;;;;;;;;;;;;;;;6229436;23;19951;-76
2022/05/11 14:32:48;;;;;;;;;;;;;;;;;;6232839;23;19919;-76
2022/05/11 14:35:14;;;;;;;;;;;;;;;;;;6228991;23;20248;-75
2022/05/11 14:37:40;;;;;;;;;;;;;;;;;;6209585;23;19966;-76
2022/05/11 14:40:06;;;;;;;;;;;;;;;;;;6203320;23;19924;-76
2022/05/11 14:42:32;;;;;;;;;;;;;;;;;;6233949;22;19962;-76
2022/05/11 14:44:58;;;;;;;;;;;;;;;;;;6233715;23;19924;-75
2022/05/11 14:47:24;;;;;;;;;;;;;;;;;;6205902;23;19920;-76
2022/05/11 14:49:50;;;;;;;;;;;;;;;;;;6233585;23;19931;-76
2022/05/11 14:52:16;;;;;;;;;;;;;;;;;;6231471;23;19919;-76
2022/05/11 14:54:42;;;;;;;;;;;;;;;;;;6234198;23;19958;-76
2022/05/11 15:02:37;;;;;;;;;;;;;;;;;;6232712;23;20635;-76
2022/05/11 15:05:06;;;;;;;;;;;;;;;;;;6232465;23;19923;-76
2022/05/11 15:07:32;;;;;;;;;;;;;;;;;;6233624;23;19916;-76
2022/05/11 15:09:58;;;;;;;;;;;;;;;;;;6207735;23;19916;-75
2022/05/11 15:15:09;;;;;;;;;;;;;;;;;;6224010;23;20057;-76
2022/05/11 15:17:35;;;;;;;;;;;;;;;;;;6229773;23;19923;-76
2022/05/11 15:20:03;;;;;;;;;;;;;;;;;;6231274;23;19926;-76
2022/05/11 15:22:33;;;;;;;;;;;;;;;;;;6261443;22;20099;-77
2022/05/11 15:24:59;;;;;;;;;;;;;;;;;;6263035;22;19920;-76
2022/05/11 15:27:24;;;;;;;;;;;;;;;;;;6262831;22;20959;-76
2022/05/11 15:29:50;;;;;;;;;;;;;;;;;;6265377;22;20296;-76
2022/05/11 15:32:16;;;;;;;;;;;;;;;;;;6259230;22;19923;-76
2022/05/11 15:34:42;;;;;;;;;;;;;;;;;;6261623;22;19915;-76
2022/05/11 15:37:08;;;;;;;;;;;;;;;;;;6255903;22;20659;-75
2022/05/11 15:39:34;;;;;;;;;;;;;;;;;;6259015;22;19990;-76
2022/05/11 15:42:01;;;;;;;;;;;;;;;;;;6259316;22;19919;-76
2022/05/11 15:44:28;;;;;;;;;;;;;;;;;;6255411;22;19927;-76
2022/05/11 15:46:57;;;;;;;;;;;;;;;;;;6258483;22;19915;-76
2022/05/11 15:49:23;;;;;;;;;;;;;;;;;;6232525;22;19924;-76
2022/05/11 15:51:49;;;;;;;;;;;;;;;;;;6260509;22;19919;-76
2022/05/11 15:54:15;;;;;;;;;;;;;;;;;;6259406;22;19929;-76
2022/05/11 15:56:41;;;;;;;;;;;;;;;;;;6264518;22;19986;-76
2022/05/11 15:59:07;;;;;;;;;;;;;;;;;;6259916;22;19981;-77
2022/05/11 16:01:33;;;;;;;;;;;;;;;;;;6261537;22;19919;-76
2022/05/11 16:03:59;;;;;;;;;;;;;;;;;;6236944;22;19922;-76
2022/05/11 16:06:25;;;;;;;;;;;;;;;;;;6258681;22;19924;-76
2022/05/11 16:08:52;;;;;;;;;;;;;;;;;;6265968;22;20652;-76
2022/05/11 16:11:18;;;;;;;;;;;;;;;;;;6264759;22;19915;-76
2022/05/11 16:13:44;;;;;;;;;;;;;;;;;;6264986;22;19926;-76
2022/05/11 16:16:10;;;;;;;;;;;;;;;;;;6262028;22;19919;-76
2022/05/11 16:21:21;;;;;;;;;;;;;;;;;;6261713;22;19915;-76
2022/05/11 16:23:47;;;;;;;;;;;;;;;;;;6264188;22;19919;-76
2022/05/11 16:26:13;;;;;;;;;;;;;;;;;;6260462;22;19923;-82
2022/05/11 16:28:39;;;;;;;;;;;;;;;;;;6238356;22;19923;-83
2022/05/11 16:31:05;;;;;;;;;;;;;;;;;;6263458;22;19919;-83
2022/05/11 16:33:31;;;;;;;;;;;;;;;;;;6237075;22;19919;-83
2022/05/11 16:35:57;;;;;;;;;;;;;;;;;;6238268;22;19944;-82
2022/05/11 16:38:23;;;;;;;;;;;;;;;;;;6258869;22;20305;-83
2022/05/11 16:40:49;;;;;;;;;;;;;;;;;;6261279;22;19997;-82
2022/05/11 16:43:15;;;;;;;;;;;;;;;;;;6257345;22;19919;-82
2022/05/11 16:45:40;;;;;;;;;;;;;;;;;;6263414;22;20306;-82
2022/05/11 16:48:06;;;;;;;;;;;;;;;;;;6259536;22;20373;-82
2022/05/11 16:50:32;;;;;;;;;;;;;;;;;;6233498;22;19927;-82
2022/05/11 16:53:01;;;;;;;;;;;;;;;;;;6235802;22;19982;-82
2022/05/11 16:55:27;;;;;;;;;;;;;;;;;;6234028;22;19927;-82
2022/05/11 16:57:53;;;;;;;;;;;;;;;;;;6262472;22;19976;-83
2022/05/11 17:00:19;;;;;;;;;;;;;;;;;;6234676;22;19951;-83
2022/05/11 17:02:45;;;;;;;;;;;;;;;;;;6238386;22;19926;-83
2022/05/11 17:05:14;;;;;;;;;;;;;;;;;;6259612;22;19931;-82
2022/05/11 17:07:41;;;;;;;;;;;;;;;;;;6261497;22;20322;-82
2022/05/11 17:10:06;;;;;;;;;;;;;;;;;;6233993;22;20324;-82
2022/05/11 17:12:33;;;;;;;;;;;;;;;;;;6237208;22;19934;-82
2022/05/11 17:14:59;;;;;;;;;;;;;;;;;;6237400;22;19992;-82
2022/05/11 17:17:25;;;;;;;;;;;;;;;;;;6236731;22;19963;-82
2022/05/11 17:19:51;;;;;;;;;;;;;;;;;;6238955;22;19919;-82
2022/05/11 17:22:17;;;;;;;;;;;;;;;;;;6261885;22;19915;-82
2022/05/11 17:24:44;;;;;;;;;;;;;;;;;;6268756;22;20030;-82
2022/05/11 17:27:09;;;;;;;;;;;;;;;;;;6264774;22;19946;-82
2022/05/11 17:29:35;;;;;;;;;;;;;;;;;;6237326;22;19919;-82
2022/05/11 17:32:01;;;;;;;;;;;;;;;;;;6236898;22;19919;-82
2022/05/11 17:34:27;;;;;;;;;;;;;;;;;;6233206;22;19972;-82
2022/05/11 17:36:53;;;;;;;;;;;;;;;;;;6261638;22;19919;-82
2022/05/11 17:39:19;;;;;;;;;;;;;;;;;;6261845;22;19918;-82
2022/05/11 17:41:45;;;;;;;;;;;;;;;;;;6239786;22;20712;-82
2022/05/11 17:44:11;;;;;;;;;;;;;;;;;;6262292;22;19919;-82
2022/05/11 17:46:37;;;;;;;;;;;;;;;;;;6264507;22;19916;-82
2022/05/11 17:49:03;;;;;;;;;;;;;;;;;;6237490;22;19972;-82
2022/05/11 17:51:29;;;;;;;;;;;;;;;;;;6237016;22;19923;-82
2022/05/11 17:53:55;;;;;;;;;;;;;;;;;;6238039;22;20347;-82
2022/05/11 17:56:21;;;;;;;;;;;;;;;;;;6260634;22;19919;-82
2022/05/11 17:58:47;;;;;;;;;;;;;;;;;;6263440;22;19926;-82
2022/05/11 18:01:13;;;;;;;;;;;;;;;;;;6262664;22;19919;-82
2022/05/11 18:03:39;;;;;;;;;;;;;;;;;;6264939;22;19925;-82
2022/05/11 18:06:05;;;;;;;;;;;;;;;;;;6236382;22;19923;-82
2022/05/11 18:08:33;;;;;;;;;;;;;;;;;;6264011;22;19919;-82
2022/05/11 18:10:59;;;;;;;;;;;;;;;;;;6264609;22;19915;-82
2022/05/11 18:13:25;;;;;;;;;;;;;;;;;;6236377;22;20005;-83
2022/05/11 18:15:51;;;;;;;;;;;;;;;;;;6237257;22;19980;-83
2022/05/11 18:18:17;;;;;;;;;;;;;;;;;;6236349;22;19923;-83
2022/05/11 18:20:43;;;;;;;;;;;;;;;;;;6267099;22;19923;-83
2022/05/11 18:23:09;;;;;;;;;;;;;;;;;;6261012;22;20252;-83
2022/05/11 18:25:35;;;;;;;;;;;;;;;;;;6263328;22;19966;-83
2022/05/11 18:28:01;;;;;;;;;;;;;;;;;;6239899;22;19950;-82
2022/05/11 18:30:27;;;;;;;;;;;;;;;;;;6257869;22;19919;-82
2022/05/11 18:32:55;;;;;;;;;;;;;;;;;;6260198;22;19923;-83
2022/05/11 18:35:21;;;;;;;;;;;;;;;;;;6237233;22;20332;-83
2022/05/11 18:37:48;;;;;;;;;;;;;;;;;;6264530;22;19958;-82
2022/05/11 18:40:14;;;;;;;;;;;;;;;;;;6255052;22;19919;-83
2022/05/11 18:42:40;;;;;;;;;;;;;;;;;;6237145;22;19922;-83
2022/05/11 18:45:06;;;;;;;;;;;;;;;;;;6236770;22;19953;-82
2022/05/11 18:47:32;;;;;;;;;;;;;;;;;;6263131;22;20017;-82
2022/05/11 18:49:57;;;;;;;;;;;;;;;;;;6261485;22;19979;-83
2022/05/11 18:52:23;;;;;;;;;;;;;;;;;;6261196;22;19994;-83
2022/05/11 18:54:49;;;;;;;;;;;;;;;;;;6256093;22;19919;-83
2022/05/11 18:57:15;;;;;;;;;;;;;;;;;;6233373;22;19919;-83
2022/05/11 18:59:41;;;;;;;;;;;;;;;;;;6259750;22;19925;-83
2022/05/11 19:02:07;;;;;;;;;;;;;;;;;;6234926;22;19923;-83
2022/05/11 19:04:33;;;;;;;;;;;;;;;;;;6264210;22;19925;-83
2022/05/11 19:06:59;;;;;;;;;;;;;;;;;;6264594;22;20231;-82
2022/05/11 19:09:25;;;;;;;;;;;;;;;;;;6262824;22;20334;-83
2022/05/11 19:11:51;;;;;;;;;;;;;;;;;;6237798;22;19916;-82
2022/05/11 19:14:17;;;;;;;;;;;;;;;;;;6236165;22;20033;-83
2022/05/11 19:16:44;;;;;;;;;;;;;;;;;;6267125;22;20251;-82
2022/05/11 19:19:10;;;;;;;;;;;;;;;;;;6262626;22;19969;-83
2022/05/11 19:21:36;;;;;;;;;;;;;;;;;;6239150;22;19990;-82
2022/05/11 19:24:02;;;;;;;;;;;;;;;;;;6264601;22;19999;-82
2022/05/11 19:26:28;;;;;;;;;;;;;;;;;;6259267;22;20034;-83
2022/05/11 19:28:54;;;;;;;;;;;;;;;;;;6263159;22;20291;-82
2022/05/11 19:31:20;;;;;;;;;;;;;;;;;;6260112;22;19923;-83
2022/05/11 19:33:46;;;;;;;;;;;;;;;;;;6264768;22;19930;-82
2022/05/11 19:36:15;;;;;;;;;;;;;;;;;;6258727;22;20255;-83
2022/05/11 19:38:44;;;;;;;;;;;;;;;;;;6236415;22;19915;-83
2022/05/11 19:41:10;;;;;;;;;;;;;;;;;;6234315;22;19993;-83
2022/05/11 19:43:36;;;;;;;;;;;;;;;;;;6263142;22;19982;-82
2022/05/11 19:46:02;;;;;;;;;;;;;;;;;;6235886;22;19923;-83
2022/05/11 19:48:28;;;;;;;;;;;;;;;;;;6259512;22;19950;-83
2022/05/11 19:50:55;;;;;;;;;;;;;;;;;;6232594;22;19935;-82
2022/05/11 19:53:21;;;;;;;;;;;;;;;;;;6257899;22;19916;-82
2022/05/11 19:55:47;;;;;;;;;;;;;;;;;;6262315;22;19922;-82
2022/05/11 19:58:13;;;;;;;;;;;;;;;;;;6260360;22;20018;-82
2022/05/11 20:00:40;;;;;;;;;;;;;;;;;;6259383;22;19926;-82
2022/05/11 20:03:06;;;;;;;;;;;;;;;;;;6231955;22;19919;-82
2022/05/11 20:05:32;;;;;;;;;;;;;;;;;;6232233;22;19984;-83
2022/05/11 20:07:58;;;;;;;;;;;;;;;;;;6258725;22;19927;-83
2022/05/11 20:10:24;;;;;;;;;;;;;;;;;;6227587;22;19926;-83
2022/05/11 20:12:50;;;;;;;;;;;;;;;;;;6231636;22;19923;-83
2022/05/11 20:15:19;;;;;;;;;;;;;;;;;;6256963;22;20347;-82
2022/05/11 20:17:46;;;;;;;;;;;;;;;;;;6236248;22;19919;-82
2022/05/11 20:20:12;;;;;;;;;;;;;;;;;;6228926;22;19930;-83
2022/05/11 20:22:46;;;;;;;;;;;;;;;;;;6260865;22;20324;-83
2022/05/11 20:25:12;;;;;;;;;;;;;;;;;;6257577;22;19923;-84
2022/05/11 20:30:24;;;;;;;;;;;;;;;;;;6233744;22;19961;-83
2022/05/11 20:35:38;;;;;;;;;;;;;;;;;;6262111;22;19919;-83
2022/05/11 20:38:23;;;;;;;;;;;;;;;;;;6234959;22;20304;-83
2022/05/11 20:46:01;;;;;;;;;;;;;;;;;;6277947;22;19938;-85
2022/05/11 20:48:59;;;;;;;;;;;;;;;;;;;;;
2022/05/11 22:45:03;;;;;;;;;;;;;;;;;;6233476;22;20308;-84
2022/05/11 22:47:28;;;;;;;;;;;;;;;;;;6256755;22;19919;-84
2022/05/11 22:49:54;;;;;;;;;;;;;;;;;;6233089;22;19990;-84
2022/05/11 22:52:23;;;;;;;;;;;;;;;;;;6230792;22;20521;-84